aviador You're here:

WBKT Decoded Metar

KUDAT in MALAYSIA
Report Time2017-04-29 17:00:00
UTC Time2017-04-29 17:46:25
Flight Rules vfr VFR
Wind260° at 02 kt
W.Rank260° ranks 3
Current wind is below 260° avg. (4.5)
Visibility9999 m
Phenomena:N/A
Clouds:Few 015 Hf
Broken 280 Hf
Expected CloudBase > 400 ft AGL from Temp-Dew spread
Ceiling28,000 ft
Temp25°C (ISA +10)
Dew Point24°C (94% RH)
QNH1011 hPa
Density Alt1,637 ft
Elevation16 ft
Report Wrong Elevation
Raw Report
WBKT 291700Z 26002KT 9999 FEW015 BKN280 25/24 Q1011=

Extra information for WBKT:More info

Metar Taf Metar & Taf Last 4 Metars F.Rules Stats Wind Profile Meteogram Temp Stats Airport Information Weather charts Add Link Nearby VenuesMetar ALERT Operation Metar Decoded Social comments